createdAt,value
2023-05-09T00:00:57.977Z,86.87
2023-05-09T00:03:25.939Z,86.06
2023-05-09T00:05:54.037Z,86.20
2023-05-09T00:08:22.196Z,86.08
2023-05-09T00:10:50.067Z,86.22
2023-05-09T00:13:18.144Z,87.04
2023-05-09T00:15:46.880Z,85.89
2023-05-09T00:18:14.944Z,86.17
2023-05-09T00:20:44.435Z,86.54
2023-05-09T00:23:12.591Z,85.87
2023-05-09T00:25:40.514Z,86.06
2023-05-09T00:28:08.733Z,87.68
2023-05-09T00:30:36.639Z,87.43
2023-05-09T00:33:04.713Z,89.60
2023-05-09T00:35:32.638Z,90.22
2023-05-09T00:38:00.628Z,90.58
2023-05-09T00:40:28.613Z,89.84
2023-05-09T00:42:58.892Z,88.84
2023-05-09T00:45:27.047Z,89.30
2023-05-09T00:47:55.916Z,88.91
2023-05-09T00:50:26.416Z,88.43
2023-05-09T00:52:55.003Z,88.83
2023-05-09T00:55:23.497Z,89.18
2023-05-09T00:57:51.700Z,89.35
2023-05-09T01:00:19.830Z,88.80
2023-05-09T01:02:53.244Z,88.92
2023-05-09T01:05:25.229Z,89.15
2023-05-09T01:08:36.169Z,88.16
2023-05-09T01:11:15.369Z,88.20
2023-05-09T01:13:54.990Z,87.47
2023-05-09T01:16:39.901Z,88.32
2023-05-09T01:19:26.868Z,87.82
2023-05-09T01:21:59.635Z,88.15
2023-05-09T01:25:00.670Z,89.63
2023-05-09T01:27:44.775Z,89.17
2023-05-09T01:30:14.235Z,89.13
2023-05-09T01:32:44.195Z,89.30
2023-05-09T01:35:14.984Z,89.04
2023-05-09T01:37:45.540Z,88.62
2023-05-09T01:40:16.937Z,87.86
2023-05-09T01:42:51.646Z,87.59
2023-05-09T01:45:21.032Z,89.15
2023-05-09T01:47:50.690Z,88.95
2023-05-09T01:50:20.368Z,88.91
2023-05-09T01:52:53.608Z,89.48
2023-05-09T01:55:27.510Z,88.39
2023-05-09T01:57:57.908Z,88.59
2023-05-09T02:00:26.329Z,88.45
2023-05-09T02:02:56.472Z,87.53
2023-05-09T02:05:28.636Z,88.14
2023-05-09T02:07:58.692Z,87.94
2023-05-09T02:10:30.995Z,88.38
2023-05-09T02:12:58.898Z,88.38
2023-05-09T02:15:27.682Z,88.18
2023-05-09T02:17:55.616Z,88.65
2023-05-09T02:20:23.780Z,88.30
2023-05-09T02:22:51.778Z,87.05
2023-05-09T02:25:20.958Z,87.04
2023-05-09T02:27:49.069Z,87.27
2023-05-09T02:30:25.472Z,87.61
2023-05-09T02:33:07.518Z,87.92
2023-05-09T02:35:38.139Z,87.85
2023-05-09T02:38:07.301Z,87.68
2023-05-09T02:40:36.738Z,88.10
2023-05-09T02:43:04.636Z,87.91
2023-05-09T02:45:32.764Z,88.27
2023-05-09T02:48:00.873Z,88.86
2023-05-09T02:50:28.844Z,89.36
2023-05-09T02:54:42.339Z,89.50
2023-05-09T02:57:10.526Z,89.31
2023-05-09T02:59:38.508Z,89.71
2023-05-09T03:02:06.732Z,89.39
2023-05-09T03:04:34.861Z,89.66
2023-05-09T03:07:02.930Z,89.59
2023-05-09T03:09:33.811Z,91.52
2023-05-09T03:12:02.759Z,90.70
2023-05-09T03:14:31.648Z,90.84
2023-05-09T03:16:59.936Z,90.63
2023-05-09T03:19:33.856Z,90.28
2023-05-09T03:22:01.906Z,91.22
2023-05-09T03:24:33.003Z,91.38
2023-05-09T03:27:01.081Z,93.72
2023-05-09T03:29:29.130Z,91.98
2023-05-09T03:31:57.088Z,90.66
2023-05-09T03:34:25.183Z,89.25
2023-05-09T03:36:53.195Z,87.61
2023-05-09T03:39:21.800Z,87.91
2023-05-09T03:41:54.484Z,87.36
2023-05-09T03:44:22.455Z,87.17
2023-05-09T03:46:50.628Z,86.75
2023-05-09T03:49:18.768Z,86.77
2023-05-09T03:51:49.196Z,86.58
2023-05-09T03:54:17.815Z,85.71
2023-05-09T03:56:45.943Z,86.75
2023-05-09T03:59:13.803Z,87.39
2023-05-09T04:01:42.688Z,87.66
2023-05-09T04:04:10.920Z,87.78
2023-05-09T04:06:39.386Z,89.93
2023-05-09T04:09:09.665Z,89.84
2023-05-09T04:11:38.082Z,89.79
2023-05-09T04:14:10.950Z,90.28
2023-05-09T04:16:38.927Z,91.41
2023-05-09T04:19:07.459Z,91.51
2023-05-09T04:21:36.835Z,93.37
2023-05-09T04:24:06.481Z,92.93
2023-05-09T04:26:41.268Z,92.25
2023-05-09T04:29:12.864Z,93.10
2023-05-09T04:31:41.287Z,93.25
2023-05-09T04:34:12.083Z,93.24
2023-05-09T04:36:40.814Z,91.88
2023-05-09T04:39:10.614Z,92.83
2023-05-09T04:41:44.046Z,93.27
2023-05-09T04:44:12.201Z,93.18
2023-05-09T04:46:40.652Z,91.83
2023-05-09T04:49:09.701Z,90.55
2023-05-09T04:51:37.644Z,91.06
2023-05-09T04:54:07.066Z,91.29
2023-05-09T04:56:38.607Z,90.66
2023-05-09T04:59:06.841Z,88.72
2023-05-09T05:01:35.145Z,89.00
2023-05-09T05:04:03.352Z,88.24
2023-05-09T05:06:33.398Z,88.08
2023-05-09T05:09:01.602Z,87.42
2023-05-09T05:11:29.527Z,86.86
2023-05-09T05:13:57.651Z,86.57
2023-05-09T05:16:26.081Z,85.31
2023-05-09T05:18:54.283Z,86.69
2023-05-09T05:21:22.966Z,86.10
2023-05-09T05:23:50.952Z,84.81
2023-05-09T05:26:18.999Z,83.77
2023-05-09T05:28:47.127Z,82.77
2023-05-09T05:31:15.484Z,82.86
2023-05-09T05:33:43.387Z,83.22
2023-05-09T05:36:11.494Z,83.28
2023-05-09T05:38:39.585Z,83.17
2023-05-09T05:41:11.414Z,82.39
2023-05-09T05:43:41.493Z,82.00
2023-05-09T05:46:09.892Z,81.75
2023-05-09T05:48:38.808Z,82.27
2023-05-09T05:51:06.961Z,82.93
2023-05-09T05:53:36.900Z,82.50
2023-05-09T05:56:05.374Z,80.60
2023-05-09T05:58:34.213Z,80.99
2023-05-09T06:01:02.921Z,82.44
2023-05-09T06:03:32.429Z,83.20
2023-05-09T06:06:03.977Z,82.39
2023-05-09T06:08:32.942Z,83.54
2023-05-09T06:11:01.665Z,83.08
2023-05-09T06:13:29.764Z,83.32
2023-05-09T06:16:17.939Z,83.25
2023-05-09T06:18:49.342Z,83.13
2023-05-09T06:21:17.408Z,83.42
2023-05-09T06:24:01.356Z,82.70
2023-05-09T06:26:33.763Z,81.76
2023-05-09T06:29:01.725Z,81.11
2023-05-09T06:31:30.080Z,81.84
2023-05-09T06:33:58.080Z,82.71
2023-05-09T06:36:26.521Z,83.33
2023-05-09T06:38:54.853Z,82.69
2023-05-09T06:41:22.836Z,83.08
2023-05-09T06:43:51.269Z,82.93
2023-05-09T06:46:19.714Z,83.05
2023-05-09T06:48:47.861Z,81.87
2023-05-09T06:51:16.598Z,81.69
2023-05-09T06:53:44.378Z,81.59
2023-05-09T06:56:12.594Z,81.59
2023-05-09T06:58:40.750Z,81.14
2023-05-09T07:01:08.808Z,82.01
2023-05-09T07:03:36.973Z,82.87
2023-05-09T07:06:05.312Z,82.08
2023-05-09T07:08:33.375Z,81.58
2023-05-09T07:11:01.456Z,81.14
2023-05-09T07:13:29.396Z,82.59
2023-05-09T07:15:58.055Z,84.23
2023-05-09T07:18:25.956Z,82.36
2023-05-09T07:20:53.910Z,82.08
2023-05-09T07:23:22.018Z,82.35
2023-05-09T07:25:49.887Z,83.54
2023-05-09T07:28:17.964Z,83.57
2023-05-09T07:30:46.182Z,84.37
2023-05-09T07:33:14.208Z,84.79
2023-05-09T07:35:42.141Z,84.04
2023-05-09T07:38:11.311Z,83.42
2023-05-09T07:40:39.395Z,84.49
2023-05-09T07:43:07.518Z,82.71
2023-05-09T07:45:35.725Z,82.10
2023-05-09T07:48:04.051Z,82.15
2023-05-09T07:50:32.098Z,82.60
2023-05-09T07:53:00.391Z,81.75
2023-05-09T07:55:28.505Z,80.38
2023-05-09T07:57:56.791Z,80.31
2023-05-09T08:00:25.003Z,80.80
2023-05-09T08:02:53.759Z,79.98
2023-05-09T08:05:24.687Z,80.23
2023-05-09T08:07:52.670Z,80.93
2023-05-09T08:10:22.112Z,79.91
2023-05-09T08:12:50.181Z,78.27
2023-05-09T08:15:18.477Z,79.24
2023-05-09T08:17:46.565Z,78.09
2023-05-09T08:20:14.875Z,76.17
2023-05-09T08:22:42.913Z,75.79
2023-05-09T08:25:11.160Z,76.62
2023-05-09T08:27:39.091Z,77.97
2023-05-09T08:30:07.735Z,75.83
2023-05-09T08:32:35.620Z,76.29
2023-05-09T08:35:04.114Z,76.94
2023-05-09T08:37:32.082Z,75.98
2023-05-09T08:40:00.047Z,74.60
2023-05-09T08:42:30.051Z,75.42
2023-05-09T08:44:58.935Z,74.94
2023-05-09T08:47:27.532Z,76.07
2023-05-09T08:49:55.681Z,76.14
2023-05-09T08:52:23.813Z,76.87
2023-05-09T08:54:52.305Z,76.75
2023-05-09T08:57:20.563Z,77.17
2023-05-09T08:59:49.932Z,77.13
2023-05-09T09:02:18.346Z,77.38
2023-05-09T09:04:47.064Z,77.66
2023-05-09T09:07:16.243Z,78.47
2023-05-09T09:09:49.097Z,78.72
2023-05-09T09:12:18.582Z,79.91
2023-05-09T09:14:54.216Z,81.06
2023-05-09T09:17:28.377Z,81.75
2023-05-09T09:20:00.487Z,81.57
2023-05-09T09:22:34.133Z,81.65
2023-05-09T09:25:02.754Z,81.61
2023-05-09T09:27:32.510Z,82.48
2023-05-09T09:30:07.911Z,83.47
2023-05-09T09:32:36.622Z,82.85
2023-05-09T09:35:08.573Z,82.42
2023-05-09T09:37:43.794Z,82.52
2023-05-09T09:40:12.839Z,82.03
2023-05-09T09:42:45.737Z,81.28
2023-05-09T09:45:16.759Z,79.48
2023-05-09T09:47:46.787Z,78.91
2023-05-09T09:50:17.466Z,77.95
2023-05-09T09:52:53.870Z,76.85
2023-05-09T09:55:24.327Z,77.82
2023-05-09T09:57:52.873Z,77.62
2023-05-09T10:00:27.800Z,78.45
2023-05-09T10:02:57.009Z,76.49
2023-05-09T10:05:26.926Z,75.26
2023-05-09T10:08:00.923Z,74.94
2023-05-09T10:10:33.491Z,74.37
2023-05-09T10:13:10.457Z,75.08
2023-05-09T10:15:52.179Z,75.56
2023-05-09T10:18:30.167Z,74.66
2023-05-09T10:21:04.012Z,74.95
2023-05-09T10:23:34.663Z,73.69
2023-05-09T10:26:29.066Z,74.46
2023-05-09T10:29:00.874Z,75.05
2023-05-09T10:31:33.016Z,73.67
2023-05-09T10:34:05.846Z,72.74
2023-05-09T10:36:34.504Z,74.80
2023-05-09T10:39:02.813Z,74.46
2023-05-09T10:41:31.578Z,75.12
2023-05-09T10:44:00.220Z,74.94
2023-05-09T10:46:28.728Z,75.51
2023-05-09T10:48:56.877Z,75.44
2023-05-09T10:51:25.612Z,75.04
2023-05-09T10:53:56.033Z,76.40
2023-05-09T10:56:32.594Z,75.56
2023-05-09T10:59:02.918Z,77.59
2023-05-09T11:01:35.192Z,77.67
2023-05-09T11:04:14.823Z,76.87
2023-05-09T11:06:47.956Z,76.23
2023-05-09T11:09:39.292Z,75.32
2023-05-09T11:12:15.177Z,75.63
2023-05-09T11:14:48.881Z,76.28
2023-05-09T11:17:23.210Z,76.30
2023-05-09T11:19:51.590Z,77.39
2023-05-09T11:22:42.479Z,78.84
2023-05-09T11:25:15.377Z,80.01
2023-05-09T11:27:46.264Z,79.88
2023-05-09T11:30:19.361Z,80.73
2023-05-09T11:32:55.807Z,81.04
2023-05-09T11:35:26.946Z,82.25
2023-05-09T11:38:07.982Z,81.88
2023-05-09T11:40:36.060Z,81.48
2023-05-09T11:43:04.024Z,82.14
2023-05-09T11:45:33.766Z,81.68
2023-05-09T11:48:02.363Z,81.64
2023-05-09T11:50:30.527Z,82.59
2023-05-09T11:53:07.387Z,81.06
2023-05-09T11:55:38.224Z,81.28
2023-05-09T11:58:07.660Z,82.02
2023-05-09T12:00:37.510Z,81.14
2023-05-09T12:03:06.326Z,81.29
2023-05-09T12:05:34.514Z,81.78
2023-05-09T12:08:07.251Z,82.79
2023-05-09T12:10:39.258Z,84.08
2023-05-09T12:13:07.382Z,83.48
2023-05-09T12:15:39.103Z,82.60
2023-05-09T12:18:09.178Z,82.26
2023-05-09T12:20:44.940Z,81.27
2023-05-09T12:23:14.773Z,80.94
2023-05-09T12:25:53.044Z,81.30
2023-05-09T12:28:25.313Z,81.13
2023-05-09T12:30:54.463Z,79.48
2023-05-09T12:33:22.745Z,79.49
2023-05-09T12:36:03.521Z,80.24
2023-05-09T12:38:32.150Z,79.47
2023-05-09T12:41:10.723Z,80.42
2023-05-09T12:43:49.657Z,81.83
2023-05-09T12:46:22.337Z,81.24
2023-05-09T12:48:50.430Z,81.11
2023-05-09T12:51:22.659Z,80.60
2023-05-09T12:53:51.035Z,81.58
2023-05-09T12:56:21.062Z,81.94
2023-05-09T12:58:51.458Z,82.58
2023-05-09T13:01:21.249Z,82.37
2023-05-09T13:03:54.010Z,83.58
2023-05-09T13:06:24.479Z,83.78
2023-05-09T13:09:06.533Z,82.88
2023-05-09T13:11:35.704Z,82.64
2023-05-09T13:14:04.402Z,83.42
2023-05-09T13:16:32.336Z,83.92
2023-05-09T13:19:01.899Z,83.73
2023-05-09T13:21:29.887Z,83.56
2023-05-09T13:23:57.910Z,83.93
2023-05-09T13:26:27.555Z,82.65
2023-05-09T13:28:56.174Z,82.95
2023-05-09T13:31:24.553Z,83.99
2023-05-09T13:33:52.938Z,84.21
2023-05-09T13:36:21.260Z,82.89
2023-05-09T13:38:49.385Z,83.32
2023-05-09T13:41:21.088Z,82.90
2023-05-09T13:43:49.107Z,81.35
2023-05-09T13:46:17.166Z,80.69
2023-05-09T13:48:45.482Z,80.45
2023-05-09T13:51:14.136Z,80.13
2023-05-09T13:53:42.264Z,79.59
2023-05-09T13:56:10.167Z,80.14
2023-05-09T13:58:38.383Z,80.09
2023-05-09T14:01:07.732Z,80.22
2023-05-09T14:03:36.021Z,81.21
2023-05-09T14:06:04.621Z,81.79
2023-05-09T14:08:33.307Z,82.20
2023-05-09T14:11:02.075Z,81.32
2023-05-09T14:13:32.253Z,81.57
2023-05-09T14:16:00.571Z,81.68
2023-05-09T14:18:28.545Z,81.48
2023-05-09T14:20:56.989Z,80.19
2023-05-09T14:23:25.341Z,80.42
2023-05-09T14:25:53.593Z,81.15
2023-05-09T14:28:22.381Z,81.79
2023-05-09T14:30:50.443Z,81.43
2023-05-09T14:33:18.540Z,81.72
2023-05-09T14:35:46.509Z,81.49
2023-05-09T14:38:14.614Z,83.24
2023-05-09T14:40:42.581Z,83.46
2023-05-09T14:43:10.789Z,83.13
2023-05-09T14:45:39.460Z,83.45
2023-05-09T14:48:07.756Z,82.80
2023-05-09T14:50:35.844Z,83.07
2023-05-09T14:53:04.093Z,82.66
2023-05-09T14:55:32.678Z,82.61
2023-05-09T14:58:00.563Z,82.87
2023-05-09T15:00:29.472Z,82.08
2023-05-09T15:02:57.952Z,82.33
2023-05-09T15:05:26.076Z,82.28
2023-05-09T15:07:54.315Z,82.41
2023-05-09T15:10:22.552Z,83.29
2023-05-09T15:12:50.452Z,83.59
2023-05-09T15:15:20.909Z,82.52
2023-05-09T15:17:49.427Z,83.38
2023-05-09T15:20:20.821Z,82.37
2023-05-09T15:22:51.068Z,82.35
2023-05-09T15:25:30.039Z,81.10
2023-05-09T15:27:59.747Z,81.20
2023-05-09T15:30:28.721Z,81.03
2023-05-09T15:32:56.916Z,79.54
2023-05-09T15:35:25.404Z,79.61
2023-05-09T15:37:54.933Z,79.06
2023-05-09T15:40:23.211Z,78.72
2023-05-09T15:42:51.636Z,79.30
2023-05-09T15:45:20.695Z,79.81
2023-05-09T15:47:49.327Z,80.55
2023-05-09T15:50:18.134Z,80.19
2023-05-09T15:52:46.753Z,80.15
2023-05-09T15:55:14.996Z,80.50
2023-05-09T15:57:45.499Z,81.15
2023-05-09T16:00:16.783Z,81.26
2023-05-09T16:02:45.523Z,81.32
2023-05-09T16:05:13.903Z,81.08
2023-05-09T16:07:47.191Z,81.00
2023-05-09T16:10:16.566Z,80.70
2023-05-09T16:12:45.051Z,80.15
2023-05-09T16:15:13.090Z,80.38
2023-05-09T16:17:41.730Z,79.98
2023-05-09T16:20:13.948Z,80.62
2023-05-09T16:22:43.076Z,80.74
2023-05-09T16:25:11.465Z,81.85
2023-05-09T16:27:39.631Z,82.05
2023-05-09T16:30:08.633Z,81.84
2023-05-09T16:32:37.088Z,81.85
2023-05-09T16:35:06.209Z,82.24
2023-05-09T16:37:35.575Z,82.11
2023-05-09T16:40:04.882Z,83.07
2023-05-09T16:42:33.450Z,84.51
2023-05-09T16:45:02.148Z,84.44
2023-05-09T16:47:30.598Z,84.61
2023-05-09T16:49:59.516Z,84.12
2023-05-09T16:52:27.775Z,84.34
2023-05-09T16:54:56.353Z,83.50
2023-05-09T16:57:24.780Z,84.50
2023-05-09T16:59:54.313Z,84.10
2023-05-09T17:02:23.201Z,83.78
2023-05-09T17:04:52.255Z,83.90
2023-05-09T17:07:20.457Z,84.54
2023-05-09T17:09:49.931Z,85.44
2023-05-09T17:12:18.715Z,85.15
2023-05-09T17:14:48.249Z,86.07
2023-05-09T17:17:18.016Z,87.78
2023-05-09T17:19:46.383Z,87.40
2023-05-09T17:22:14.793Z,88.03
2023-05-09T17:24:43.214Z,88.57
2023-05-09T17:27:11.804Z,89.07
2023-05-09T17:29:40.180Z,87.90
2023-05-09T17:32:09.010Z,86.88
2023-05-09T17:34:38.178Z,87.97
2023-05-09T17:37:07.639Z,88.79
2023-05-09T17:39:39.452Z,88.17
2023-05-09T17:42:08.119Z,89.00
2023-05-09T17:44:36.772Z,88.33
2023-05-09T17:47:05.475Z,88.74
2023-05-09T17:49:34.146Z,88.98
2023-05-09T17:52:02.516Z,88.89
2023-05-09T17:54:31.145Z,90.14
2023-05-09T17:57:02.178Z,89.90
2023-05-09T17:59:30.614Z,90.61
2023-05-09T18:01:59.094Z,90.94
2023-05-09T18:04:30.740Z,90.41
2023-05-09T18:06:59.170Z,91.49
2023-05-09T18:09:28.348Z,90.89
2023-05-09T18:11:56.895Z,91.64
2023-05-09T18:14:25.429Z,91.71
2023-05-09T18:16:53.937Z,92.22
2023-05-09T18:19:22.375Z,92.75
2023-05-09T18:21:51.161Z,92.79
2023-05-09T18:24:21.646Z,92.96
2023-05-09T18:26:50.598Z,93.11
2023-05-09T18:29:19.253Z,93.73
2023-05-09T18:31:47.725Z,93.17
2023-05-09T18:34:16.168Z,92.91
2023-05-09T18:36:44.752Z,94.60
2023-05-09T18:39:14.450Z,93.94
2023-05-09T18:41:43.686Z,94.11
2023-05-09T18:44:11.849Z,93.23
2023-05-09T18:46:40.319Z,93.18
2023-05-09T18:49:10.027Z,93.20
2023-05-09T18:51:38.618Z,93.02
2023-05-09T18:54:08.338Z,92.49
2023-05-09T18:56:39.743Z,92.66
2023-05-09T18:59:10.101Z,92.01
2023-05-09T19:01:38.607Z,92.01
2023-05-09T19:04:07.371Z,92.96
2023-05-09T19:06:36.113Z,92.77
2023-05-09T19:09:04.778Z,92.73
2023-05-09T19:11:33.263Z,92.95
2023-05-09T19:14:02.357Z,92.79
2023-05-09T19:16:31.677Z,93.22
2023-05-09T19:19:01.507Z,92.80
2023-05-09T19:21:30.190Z,92.22
2023-05-09T19:23:58.669Z,92.99
2023-05-09T19:26:27.131Z,92.85
2023-05-09T19:28:55.826Z,93.18
2023-05-09T19:31:25.761Z,93.18
2023-05-09T19:33:54.323Z,92.24
2023-05-09T19:36:22.974Z,93.52
2023-05-09T19:38:51.370Z,92.54
2023-05-09T19:41:20.471Z,93.17
2023-05-09T19:43:51.161Z,92.93
2023-05-09T19:46:19.704Z,92.79
2023-05-09T19:48:48.188Z,92.49
2023-05-09T19:51:16.843Z,93.07
2023-05-09T19:53:45.268Z,93.79
2023-05-09T19:56:14.122Z,92.94
2023-05-09T19:58:42.666Z,92.35
2023-05-09T20:01:11.135Z,91.96
2023-05-09T20:03:41.081Z,91.43
2023-05-09T20:06:10.043Z,92.73
2023-05-09T20:08:38.020Z,92.29
2023-05-09T20:11:06.379Z,92.65
2023-05-09T20:13:34.846Z,93.75
2023-05-09T20:16:04.526Z,93.78
2023-05-09T20:18:33.712Z,93.53
2023-05-09T20:21:02.694Z,92.91
2023-05-09T20:23:31.526Z,93.03
2023-05-09T20:26:00.027Z,93.09
2023-05-09T20:28:28.432Z,92.82
2023-05-09T20:30:56.666Z,92.89
2023-05-09T20:33:24.765Z,92.78
2023-05-09T20:35:52.889Z,92.97
2023-05-09T20:38:21.234Z,93.18
2023-05-09T20:40:49.330Z,93.40
2023-05-09T20:43:17.241Z,93.70
2023-05-09T20:45:45.375Z,93.68
2023-05-09T20:48:13.958Z,93.43
2023-05-09T20:50:41.910Z,93.54
2023-05-09T20:53:09.959Z,93.90
2023-05-09T20:55:38.207Z,94.99
2023-05-09T20:58:06.395Z,95.44
2023-05-09T21:00:34.511Z,95.21
2023-05-09T21:03:02.933Z,95.16
2023-05-09T21:05:31.046Z,94.29
2023-05-09T21:07:59.126Z,93.76
2023-05-09T21:10:27.366Z,93.65
2023-05-09T21:12:55.741Z,93.41
2023-05-09T21:15:23.949Z,93.66
2023-05-09T21:17:51.954Z,92.44
2023-05-09T21:20:20.177Z,91.68
2023-05-09T21:22:48.197Z,91.49
2023-05-09T21:25:17.654Z,91.62
2023-05-09T21:27:45.498Z,92.64
2023-05-09T21:30:13.836Z,92.96
2023-05-09T21:32:41.971Z,94.51
2023-05-09T21:35:12.907Z,94.64
2023-05-09T21:37:41.174Z,94.01
2023-05-09T21:40:09.864Z,94.55
2023-05-09T21:42:40.286Z,94.81
2023-05-09T21:45:08.904Z,94.78
2023-05-09T21:47:39.839Z,94.31
2023-05-09T21:50:08.337Z,95.02
2023-05-09T21:52:36.243Z,95.09
2023-05-09T21:55:04.524Z,94.45
2023-05-09T21:57:32.468Z,94.92
2023-05-09T22:00:01.712Z,95.02
2023-05-09T22:02:29.874Z,95.24
2023-05-09T22:04:58.071Z,95.00
2023-05-09T22:07:26.024Z,94.97
2023-05-09T22:09:54.310Z,94.80
2023-05-09T22:12:23.255Z,94.93
2023-05-09T22:14:56.195Z,95.19
2023-05-09T22:17:25.052Z,95.95
2023-05-09T22:19:52.971Z,96.42
2023-05-09T22:22:21.711Z,95.63
2023-05-09T22:24:49.975Z,96.38
2023-05-09T22:27:17.920Z,96.09
2023-05-09T22:29:46.752Z,96.78
2023-05-09T22:32:14.736Z,96.82
2023-05-09T22:34:42.710Z,96.79
2023-05-09T22:37:10.650Z,96.42
2023-05-09T22:39:39.490Z,97.24
2023-05-09T22:42:10.021Z,97.14
2023-05-09T22:44:39.271Z,97.79
2023-05-09T22:47:09.860Z,97.73
2023-05-09T22:49:37.833Z,97.17
2023-05-09T22:52:19.974Z,97.41
2023-05-09T22:54:47.911Z,97.79
2023-05-09T22:57:18.368Z,97.92
2023-05-09T22:59:47.008Z,98.83
2023-05-09T23:02:15.018Z,98.19
2023-05-09T23:04:43.022Z,100.00
2023-05-09T23:07:11.001Z,98.50
2023-05-09T23:09:39.296Z,99.21
2023-05-09T23:12:09.800Z,98.66
2023-05-09T23:14:38.294Z,100.00
2023-05-09T23:17:06.173Z,99.78
2023-05-09T23:19:34.067Z,98.22
2023-05-09T23:22:02.033Z,98.30
2023-05-09T23:24:29.880Z,97.17
2023-05-09T23:26:58.257Z,95.92
2023-05-09T23:29:26.308Z,98.28
2023-05-09T23:31:54.384Z,97.40
2023-05-09T23:34:22.496Z,98.37
2023-05-09T23:36:50.356Z,97.43
2023-05-09T23:39:18.651Z,97.89
2023-05-09T23:41:46.527Z,97.41
2023-05-09T23:44:15.009Z,97.18
2023-05-09T23:46:42.945Z,97.93
2023-05-09T23:49:13.357Z,96.63
2023-05-09T23:51:41.450Z,97.54
2023-05-09T23:54:09.256Z,96.08
2023-05-09T23:56:37.288Z,98.82
2023-05-09T23:59:05.314Z,97.76
